Terminal Aerodrome Forecast
Issued by NWS Lake Charles, LA

Home | Current Version | Previous Version | Text Only | Print | Product List | Glossary On
Versions: 1 2 3 4 5 6 7 8 9 10 11 12 13 14 15 16 17 18 19
000
FTUS44 KLCH 300300 AAA
TAFBPT
TAF AMD
KBPT 300348Z 3004/3024 11009KT P6SM -RA SCT025 OVC100
      TEMPO 3004/3008 4SM -SHRA BR BKN025
     FM300800 11007KT 4SM -SHRA BKN025
     FM301800 17008KT P6SM VCSH BKN025 PROB30 3018/3024 4SM -SHRA=

USA.gov is the U.S. government's official web portal to all federal, state and local government web resources and services.